sensor_id;sensor_type;location;lat;lon;timestamp;P1;durP1;ratioP1;P2;durP2;ratioP2
77828;SDS011;67019;51.034;3.728;2023-06-04T19:48:41;13.22;;;3.30;;
77828;SDS011;67019;51.034;3.728;2023-06-04T19:51:10;12.07;;;3.40;;
77828;SDS011;67019;51.034;3.728;2023-06-04T19:53:40;15.80;;;3.12;;
77828;SDS011;67019;51.034;3.728;2023-06-04T19:56:10;12.05;;;3.30;;
77828;SDS011;67019;51.034;3.728;2023-06-04T19:58:39;10.35;;;2.98;;
77828;SDS011;67019;51.034;3.728;2023-06-04T20:01:07;19.12;;;3.67;;
77828;SDS011;67019;51.034;3.728;2023-06-04T20:03:34;7.55;;;4.22;;
77828;SDS011;67019;51.034;3.728;2023-06-04T20:06:04;12.23;;;4.50;;
77828;SDS011;67019;51.034;3.728;2023-06-04T20:08:34;11.83;;;3.50;;
77828;SDS011;67019;51.034;3.728;2023-06-04T20:11:03;11.18;;;3.83;;
77828;SDS011;67019;51.034;3.728;2023-06-04T20:13:35;13.05;;;3.83;;
77828;SDS011;67019;51.034;3.728;2023-06-04T20:16:11;13.28;;;4.50;;
77828;SDS011;67019;51.034;3.728;2023-06-04T20:21:05;17.42;;;4.50;;
77828;SDS011;67019;51.034;3.728;2023-06-04T20:23:33;11.90;;;4.95;;
77828;SDS011;67019;51.034;3.728;2023-06-04T20:26:03;13.60;;;4.53;;
77828;SDS011;67019;51.034;3.728;2023-06-04T20:28:31;13.62;;;4.75;;
77828;SDS011;67019;51.034;3.728;2023-06-04T20:31:00;14.03;;;4.55;;
77828;SDS011;67019;51.034;3.728;2023-06-04T20:33:27;11.25;;;4.50;;
77828;SDS011;67019;51.034;3.728;2023-06-04T20:35:56;17.57;;;5.15;;
77828;SDS011;67019;51.034;3.728;2023-06-04T20:38:24;18.52;;;5.12;;
77828;SDS011;67019;51.034;3.728;2023-06-04T20:40:52;16.73;;;7.30;;
77828;SDS011;67019;51.034;3.728;2023-06-04T20:43:21;12.00;;;4.87;;
77828;SDS011;67019;51.034;3.728;2023-06-04T20:45:51;13.72;;;5.12;;
77828;SDS011;67019;51.034;3.728;2023-06-04T20:48:22;14.98;;;4.65;;
77828;SDS011;67019;51.034;3.728;2023-06-04T20:50:51;15.03;;;5.62;;
77828;SDS011;67019;51.034;3.728;2023-06-04T20:53:18;23.57;;;7.47;;
77828;SDS011;67019;51.034;3.728;2023-06-04T20:55:46;20.30;;;7.80;;
77828;SDS011;67019;51.034;3.728;2023-06-04T20:58:16;18.30;;;6.53;;
77828;SDS011;67019;51.034;3.728;2023-06-04T21:00:46;18.10;;;6.70;;
77828;SDS011;67019;51.034;3.728;2023-06-04T21:03:14;13.72;;;6.17;;
77828;SDS011;67019;51.034;3.728;2023-06-04T21:05:41;10.03;;;5.58;;
77828;SDS011;67019;51.034;3.728;2023-06-04T21:08:10;19.75;;;6.05;;
77828;SDS011;67019;51.034;3.728;2023-06-04T21:10:38;15.70;;;5.90;;
77828;SDS011;67019;51.034;3.728;2023-06-04T21:13:06;13.15;;;5.08;;
77828;SDS011;67019;51.034;3.728;2023-06-04T21:15:33;11.78;;;4.55;;
77828;SDS011;67019;51.034;3.728;2023-06-04T21:18:03;11.18;;;4.87;;
77828;SDS011;67019;51.034;3.728;2023-06-04T21:22:59;7.75;;;4.42;;
77828;SDS011;67019;51.034;3.728;2023-06-04T21:25:27;9.18;;;3.83;;
77828;SDS011;67019;51.034;3.728;2023-06-04T21:27:55;8.00;;;3.58;;
77828;SDS011;67019;51.034;3.728;2023-06-04T21:30:22;8.88;;;4.05;;
77828;SDS011;67019;51.034;3.728;2023-06-04T21:32:50;9.83;;;3.58;;
77828;SDS011;67019;51.034;3.728;2023-06-04T21:35:19;12.90;;;3.80;;
77828;SDS011;67019;51.034;3.728;2023-06-04T21:37:46;11.40;;;4.08;;
77828;SDS011;67019;51.034;3.728;2023-06-04T21:40:14;15.05;;;3.25;;
77828;SDS011;67019;51.034;3.728;2023-06-04T21:42:43;9.08;;;3.20;;
77828;SDS011;67019;51.034;3.728;2023-06-04T21:45:11;10.55;;;3.67;;
77828;SDS011;67019;51.034;3.728;2023-06-04T21:47:38;11.43;;;3.83;;
77828;SDS011;67019;51.034;3.728;2023-06-04T21:50:06;11.38;;;3.45;;
77828;SDS011;67019;51.034;3.728;2023-06-04T21:52:41;12.85;;;3.65;;
77828;SDS011;67019;51.034;3.728;2023-06-04T21:55:05;12.75;;;3.42;;
77828;SDS011;67019;51.034;3.728;2023-06-04T21:57:33;5.87;;;3.25;;
77828;SDS011;67019;51.034;3.728;2023-06-04T22:00:02;7.00;;;3.08;;
77828;SDS011;67019;51.034;3.728;2023-06-04T22:02:30;15.50;;;4.87;;
77828;SDS011;67019;51.034;3.728;2023-06-04T22:05:03;9.78;;;3.80;;
77828;SDS011;67019;51.034;3.728;2023-06-04T22:07:32;6.87;;;3.50;;
77828;SDS011;67019;51.034;3.728;2023-06-04T22:10:00;11.65;;;3.45;;
77828;SDS011;67019;51.034;3.728;2023-06-04T22:12:31;11.50;;;3.42;;
77828;SDS011;67019;51.034;3.728;2023-06-04T22:15:07;6.53;;;3.40;;
77828;SDS011;67019;51.034;3.728;2023-06-04T22:17:36;11.85;;;5.25;;
77828;SDS011;67019;51.034;3.728;2023-06-04T22:20:05;11.68;;;4.10;;
77828;SDS011;67019;51.034;3.728;2023-06-04T22:22:33;9.43;;;3.47;;
77828;SDS011;67019;51.034;3.728;2023-06-04T22:25:01;6.55;;;2.98;;
77828;SDS011;67019;51.034;3.728;2023-06-04T22:27:29;4.47;;;2.90;;
77828;SDS011;67019;51.034;3.728;2023-06-04T22:29:58;9.10;;;3.92;;
77828;SDS011;67019;51.034;3.728;2023-06-04T22:32:26;14.33;;;3.62;;
77828;SDS011;67019;51.034;3.728;2023-06-04T22:34:53;11.25;;;4.37;;
77828;SDS011;67019;51.034;3.728;2023-06-04T22:37:21;8.20;;;3.15;;
77828;SDS011;67019;51.034;3.728;2023-06-04T22:39:48;12.55;;;2.77;;
77828;SDS011;67019;51.034;3.728;2023-06-04T22:42:16;8.00;;;3.25;;
77828;SDS011;67019;51.034;3.728;2023-06-04T22:44:43;9.80;;;3.50;;
77828;SDS011;67019;51.034;3.728;2023-06-04T22:47:11;5.78;;;2.83;;
77828;SDS011;67019;51.034;3.728;2023-06-04T22:49:39;5.03;;;3.02;;
77828;SDS011;67019;51.034;3.728;2023-06-04T22:52:06;7.28;;;2.60;;
77828;SDS011;67019;51.034;3.728;2023-06-04T22:54:34;5.75;;;2.50;;
77828;SDS011;67019;51.034;3.728;2023-06-04T22:57:01;5.30;;;3.17;;
77828;SDS011;67019;51.034;3.728;2023-06-04T22:59:29;9.95;;;3.25;;
77828;SDS011;67019;51.034;3.728;2023-06-04T23:01:57;8.98;;;3.55;;
77828;SDS011;67019;51.034;3.728;2023-06-04T23:04:24;4.45;;;3.08;;
77828;SDS011;67019;51.034;3.728;2023-06-04T23:06:52;5.55;;;3.50;;
77828;SDS011;67019;51.034;3.728;2023-06-04T23:09:19;7.10;;;3.35;;
77828;SDS011;67019;51.034;3.728;2023-06-04T23:11:47;6.55;;;2.98;;
77828;SDS011;67019;51.034;3.728;2023-06-04T23:14:14;5.85;;;3.05;;
77828;SDS011;67019;51.034;3.728;2023-06-04T23:16:42;10.88;;;3.22;;
77828;SDS011;67019;51.034;3.728;2023-06-04T23:19:10;5.70;;;3.05;;
77828;SDS011;67019;51.034;3.728;2023-06-04T23:21:37;4.70;;;3.00;;
77828;SDS011;67019;51.034;3.728;2023-06-04T23:24:05;10.65;;;2.92;;
77828;SDS011;67019;51.034;3.728;2023-06-04T23:26:33;7.37;;;2.77;;
77828;SDS011;67019;51.034;3.728;2023-06-04T23:29:00;11.08;;;3.50;;
77828;SDS011;67019;51.034;3.728;2023-06-04T23:31:28;8.05;;;5.08;;
77828;SDS011;67019;51.034;3.728;2023-06-04T23:33:56;5.50;;;3.00;;
77828;SDS011;67019;51.034;3.728;2023-06-04T23:36:23;8.25;;;3.33;;
77828;SDS011;67019;51.034;3.728;2023-06-04T23:38:53;7.58;;;3.58;;
77828;SDS011;67019;51.034;3.728;2023-06-04T23:41:20;4.25;;;2.87;;
77828;SDS011;67019;51.034;3.728;2023-06-04T23:43:48;8.10;;;3.77;;
77828;SDS011;67019;51.034;3.728;2023-06-04T23:46:15;8.65;;;3.33;;
77828;SDS011;67019;51.034;3.728;2023-06-04T23:48:43;11.40;;;3.30;;
77828;SDS011;67019;51.034;3.728;2023-06-04T23:51:10;10.60;;;3.85;;
77828;SDS011;67019;51.034;3.728;2023-06-04T23:53:39;5.28;;;3.52;;
77828;SDS011;67019;51.034;3.728;2023-06-04T23:56:07;5.10;;;3.50;;
77828;SDS011;67019;51.034;3.728;2023-06-04T23:58:35;3.85;;;2.67;;
